createdAt,value
2023-01-02T00:01:47.606Z,6.18
2023-01-02T00:06:49.787Z,6.22
2023-01-02T00:11:51.921Z,6.10
2023-01-02T00:16:54.067Z,6.00
2023-01-02T00:21:56.178Z,5.97
2023-01-02T00:26:58.287Z,5.94
2023-01-02T00:32:00.486Z,5.80
2023-01-02T00:37:02.645Z,5.82
2023-01-02T00:42:05.053Z,5.77
2023-01-02T00:47:07.295Z,5.76
2023-01-02T00:52:09.553Z,5.77
2023-01-02T00:57:11.693Z,5.98
2023-01-02T01:02:13.947Z,5.99
2023-01-02T01:07:16.264Z,6.06
2023-01-02T01:12:18.424Z,6.48
2023-01-02T01:17:20.537Z,6.73
2023-01-02T01:22:22.626Z,6.91
2023-01-02T01:27:24.819Z,7.04
2023-01-02T01:32:28.942Z,7.21
2023-01-02T01:37:31.110Z,7.37
2023-01-02T01:42:34.680Z,7.49
2023-01-02T01:47:36.773Z,7.50
2023-01-02T01:52:47.079Z,7.63
2023-01-02T01:57:58.704Z,7.73
2023-01-02T02:03:06.942Z,7.82
2023-01-02T02:08:40.288Z,7.90
2023-01-02T02:13:42.866Z,7.95
2023-01-02T02:18:47.920Z,8.02
2023-01-02T02:24:19.539Z,8.07
2023-01-02T02:29:43.086Z,8.01
2023-01-02T02:35:15.267Z,8.15
2023-01-02T02:40:37.994Z,8.10
2023-01-02T02:46:08.324Z,8.14
2023-01-02T02:51:21.207Z,8.25
2023-01-02T02:56:27.524Z,8.18
2023-01-02T03:01:31.665Z,8.20
2023-01-02T03:06:45.727Z,8.21
2023-01-02T03:12:14.416Z,8.25
2023-01-02T03:17:24.342Z,8.27
2023-01-02T03:22:31.914Z,8.25
2023-01-02T03:27:39.091Z,8.14
2023-01-02T03:33:08.388Z,8.21
2023-01-02T03:38:16.256Z,8.17
2023-01-02T03:43:23.758Z,8.20
2023-01-02T03:48:35.651Z,8.29
2023-01-02T03:53:40.506Z,8.32
2023-01-02T03:59:06.774Z,8.22
2023-01-02T04:04:18.749Z,8.33
2023-01-02T04:09:24.376Z,8.32
2023-01-02T04:14:48.802Z,8.29
2023-01-02T04:19:55.960Z,8.28
2023-01-02T04:25:19.143Z,8.27
2023-01-02T04:30:21.634Z,8.28
2023-01-02T04:35:25.005Z,8.21
2023-01-02T04:40:31.218Z,8.25
2023-01-02T04:45:33.383Z,8.24
2023-01-02T04:50:35.548Z,8.27
2023-01-02T04:55:38.675Z,8.27
2023-01-02T05:00:40.870Z,8.14
2023-01-02T05:05:44.546Z,8.11
2023-01-02T05:10:46.731Z,8.13
2023-01-02T05:15:56.496Z,8.19
2023-01-02T05:21:29.079Z,8.13
2023-01-02T05:26:33.172Z,8.10
2023-01-02T05:31:35.481Z,8.11
2023-01-02T05:36:37.680Z,8.06
2023-01-02T05:41:42.861Z,8.09
2023-01-02T05:46:45.086Z,8.14
2023-01-02T05:51:47.300Z,8.17
2023-01-02T05:56:49.631Z,8.12
2023-01-02T06:01:51.859Z,8.12
2023-01-02T06:06:54.046Z,8.09
2023-01-02T06:11:56.351Z,8.12
2023-01-02T06:16:58.532Z,8.09
2023-01-02T06:22:00.738Z,8.08
2023-01-02T06:27:02.897Z,8.03
2023-01-02T06:32:05.510Z,8.07
2023-01-02T06:37:09.927Z,8.10
2023-01-02T06:42:13.221Z,8.13
2023-01-02T06:47:15.396Z,8.15
2023-01-02T06:52:17.578Z,8.21
2023-01-02T06:57:19.809Z,8.27
2023-01-02T07:02:22.070Z,8.28
2023-01-02T07:07:24.357Z,8.26
2023-01-02T07:12:26.512Z,8.20
2023-01-02T07:17:28.709Z,8.12
2023-01-02T07:22:30.937Z,8.24
2023-01-02T07:27:33.426Z,8.26
2023-01-02T07:32:35.663Z,8.44
2023-01-02T07:37:42.882Z,8.51
2023-01-02T07:42:45.205Z,8.47
2023-01-02T07:47:47.427Z,8.61
2023-01-02T07:52:49.655Z,8.49
2023-01-02T07:57:51.853Z,9.01
2023-01-02T08:02:55.184Z,9.14
2023-01-02T08:07:57.479Z,9.19
2023-01-02T08:13:00.825Z,9.27
2023-01-02T08:18:03.054Z,9.28
2023-01-02T08:23:05.364Z,9.61
2023-01-02T08:28:10.053Z,9.53
2023-01-02T08:33:12.224Z,9.51
2023-01-02T08:38:14.678Z,9.51
2023-01-02T08:43:18.659Z,9.47
2023-01-02T08:48:21.816Z,9.58
2023-01-02T08:53:24.203Z,9.74
2023-01-02T08:58:26.649Z,10.04
2023-01-02T09:03:29.077Z,10.20
2023-01-02T09:08:31.738Z,10.18
2023-01-02T09:13:34.243Z,10.53
2023-01-02T09:18:38.270Z,10.72
2023-01-02T09:23:40.554Z,10.88
2023-01-02T09:28:42.870Z,11.00
2023-01-02T09:33:47.748Z,11.16
2023-01-02T09:38:57.609Z,11.08
2023-01-02T09:44:08.438Z,10.94
2023-01-02T09:49:23.049Z,10.89
2023-01-02T09:54:29.019Z,11.05
2023-01-02T09:59:59.674Z,11.16
2023-01-02T10:05:30.585Z,11.27
2023-01-02T10:10:35.652Z,11.12
2023-01-02T10:15:42.544Z,11.07
2023-01-02T10:20:49.036Z,11.28
2023-01-02T10:26:16.464Z,11.51
2023-01-02T10:31:29.693Z,10.96
2023-01-02T10:36:36.307Z,11.02
2023-01-02T10:41:40.070Z,11.34
2023-01-02T10:46:42.518Z,11.49
2023-01-02T10:52:03.036Z,11.49
2023-01-02T10:57:20.710Z,11.59
2023-01-02T11:02:36.846Z,11.62
2023-01-02T11:07:40.028Z,11.44
2023-01-02T11:12:50.045Z,11.29
2023-01-02T11:17:52.504Z,11.50
2023-01-02T11:22:57.482Z,11.46
2023-01-02T11:28:01.027Z,11.64
2023-01-02T11:33:10.972Z,11.64
2023-01-02T11:38:29.801Z,11.68
2023-01-02T11:43:52.665Z,12.04
2023-01-02T11:49:00.946Z,12.13
2023-01-02T11:54:10.899Z,12.34
2023-01-02T11:59:47.973Z,12.19
2023-01-02T12:04:50.277Z,11.72
2023-01-02T12:10:14.190Z,11.81
2023-01-02T12:15:42.458Z,12.66
2023-01-02T12:21:24.567Z,13.02
2023-01-02T12:26:59.813Z,13.31
2023-01-02T12:32:20.648Z,13.23
2023-01-02T12:37:29.097Z,14.23
2023-01-02T12:43:05.721Z,16.16
2023-01-02T12:48:40.199Z,16.30
2023-01-02T12:53:42.383Z,16.73
2023-01-02T12:59:00.459Z,16.95
2023-01-02T13:04:24.251Z,15.18
2023-01-02T13:09:41.985Z,13.27
2023-01-02T13:14:54.030Z,12.31
2023-01-02T13:20:28.284Z,11.92
2023-01-02T13:25:32.823Z,11.84
2023-01-02T13:30:34.997Z,11.60
2023-01-02T13:35:38.779Z,11.28
2023-01-02T13:40:41.568Z,11.03
2023-01-02T13:45:51.022Z,10.83
2023-01-02T13:51:05.923Z,11.01
2023-01-02T13:56:23.638Z,11.14
2023-01-02T14:01:59.778Z,10.96
2023-01-02T14:07:25.304Z,10.63
2023-01-02T14:12:28.195Z,10.72
2023-01-02T14:17:45.602Z,10.31
2023-01-02T14:22:53.932Z,10.42
2023-01-02T14:27:57.215Z,10.36
2023-01-02T14:33:01.537Z,10.36
2023-01-02T14:38:11.722Z,10.22
2023-01-02T14:43:41.860Z,10.00
2023-01-02T14:48:49.998Z,9.88
2023-01-02T14:53:59.387Z,9.86
2023-01-02T14:59:03.669Z,9.67
2023-01-02T15:04:19.004Z,9.22
2023-01-02T15:09:31.481Z,8.98
2023-01-02T15:14:33.902Z,8.77
2023-01-02T15:19:38.527Z,8.61
2023-01-02T15:24:50.384Z,8.31
2023-01-02T15:29:56.041Z,8.26
2023-01-02T15:35:21.197Z,8.18
2023-01-02T15:40:24.394Z,8.48
2023-01-02T15:45:27.601Z,8.79
2023-01-02T15:50:31.327Z,8.74
2023-01-02T15:55:37.554Z,9.19
2023-01-02T16:00:40.302Z,9.04
2023-01-02T16:05:54.232Z,9.27
2023-01-02T16:11:02.419Z,9.31
2023-01-02T16:16:15.702Z,9.13
2023-01-02T16:21:19.520Z,9.41
2023-01-02T16:26:32.364Z,9.22
2023-01-02T16:31:55.712Z,9.46
2023-01-02T16:37:37.142Z,9.49
2023-01-02T16:42:41.358Z,9.39
2023-01-02T16:47:44.314Z,9.29
2023-01-02T16:52:47.130Z,9.29
2023-01-02T16:57:50.658Z,9.21
2023-01-02T17:02:52.996Z,9.12
2023-01-02T17:07:55.546Z,8.99
2023-01-02T17:12:57.786Z,8.92
2023-01-02T17:18:00.113Z,8.94
2023-01-02T17:23:03.023Z,9.00
2023-01-02T17:28:05.378Z,9.05
2023-01-02T17:33:07.845Z,9.02
2023-01-02T17:38:10.098Z,9.03
2023-01-02T17:48:33.001Z,8.84
2023-01-02T17:53:36.276Z,8.74
2023-01-02T17:58:38.523Z,8.55
2023-01-02T18:03:40.705Z,8.58
2023-01-02T18:08:43.499Z,8.49
2023-01-02T18:13:48.875Z,8.89
2023-01-02T18:18:51.488Z,8.55
2023-01-02T18:23:58.619Z,8.50
2023-01-02T18:29:09.418Z,8.47
2023-01-02T18:34:45.751Z,8.52
2023-01-02T18:39:42.674Z,8.31
2023-01-02T18:44:45.321Z,8.40
2023-01-02T18:49:47.532Z,8.44
2023-01-02T18:54:58.903Z,8.54
2023-01-02T19:00:16.013Z,8.55
2023-01-02T19:05:44.106Z,8.64
2023-01-02T19:10:51.378Z,8.68
2023-01-02T19:16:13.564Z,8.56
2023-01-02T19:21:17.415Z,8.53
2023-01-02T19:26:24.977Z,8.59
2023-01-02T19:31:45.959Z,8.99
2023-01-02T19:36:53.807Z,9.15
2023-01-02T19:42:14.845Z,9.07
2023-01-02T19:47:18.436Z,9.03
2023-01-02T19:52:23.307Z,8.71
2023-01-02T19:57:26.098Z,8.60
2023-01-02T20:02:28.819Z,8.56
2023-01-02T20:07:31.670Z,8.63
2023-01-02T20:12:42.721Z,8.69
2023-01-02T20:17:45.783Z,8.69
2023-01-02T20:22:51.581Z,8.87
2023-01-02T20:27:55.927Z,8.83
2023-01-02T20:32:58.158Z,8.69
2023-01-02T20:38:00.374Z,8.70
2023-01-02T20:43:02.783Z,8.80
2023-01-02T20:48:05.462Z,8.86
2023-01-02T20:53:07.744Z,8.88
2023-01-02T20:58:10.074Z,9.04
2023-01-02T21:03:12.457Z,9.02
2023-01-02T21:08:14.823Z,9.03
2023-01-02T21:13:16.972Z,8.94
2023-01-02T21:18:20.632Z,9.00
2023-01-02T21:23:24.769Z,9.10
2023-01-02T21:28:27.469Z,9.32
2023-01-02T21:33:30.663Z,9.34
2023-01-02T21:38:33.966Z,9.35
2023-01-02T21:43:36.501Z,9.29
2023-01-02T21:48:39.093Z,9.39
2023-01-02T21:53:41.285Z,9.09
2023-01-02T21:58:43.476Z,8.90
2023-01-02T22:03:45.691Z,8.97
2023-01-02T22:08:47.899Z,9.01
2023-01-02T22:13:50.121Z,9.05
2023-01-02T22:18:52.333Z,9.04
2023-01-02T22:23:54.530Z,9.11
2023-01-02T22:28:57.198Z,8.98
2023-01-02T22:34:00.569Z,8.93
2023-01-02T22:44:28.892Z,8.97
2023-01-02T22:49:34.953Z,9.13
2023-01-02T22:54:37.174Z,9.03
2023-01-02T22:59:40.944Z,8.95
2023-01-02T23:04:43.669Z,9.00
2023-01-02T23:09:46.190Z,8.99
2023-01-02T23:14:48.362Z,8.94
2023-01-02T23:19:50.744Z,8.93
2023-01-02T23:24:52.966Z,9.04
2023-01-02T23:29:55.103Z,9.07
2023-01-02T23:34:57.260Z,9.08
2023-01-02T23:39:59.475Z,9.05
2023-01-02T23:45:02.850Z,9.04
2023-01-02T23:50:06.621Z,8.99
2023-01-02T23:55:09.249Z,8.89
